Baltimore, Maryland
Traffic Map
Current Weather Conditions
Baltimore, Maryland
Broken Clouds
Broken Clouds
27°
Feels Like: 27°
Wind Chill: 27° Ceiling: 25000
Heat Index: 27° Visibility: 7mi
Dew Point: 22° Wind: 0mph
Humidity: 81% Direction: ° ()
Pressure: 30.3in Gusts: 0mph
Raw Report DataKBWI 220854Z 00000KT 7SM BKN250 M03/M06 A3030 RMK AO2 SLP262 T10281056 58007
Traffic Incident Summary
Active as of:
Severity:
Category:
InformationThere was an issue retrieving the traffic information for this location. Please try a different location or try again shortly.
Advertisements
Track Severe Weather on mobile